sensor_id;sensor_type;location;lat;lon;timestamp;P1;durP1;ratioP1;P2;durP2;ratioP2
27383;SDS011;14851;51.166;4.760;2022-12-01T00:01:09;42.13;;;30.48;;
27383;SDS011;14851;51.166;4.760;2022-12-01T00:03:36;40.80;;;30.40;;
27383;SDS011;14851;51.166;4.760;2022-12-01T00:06:04;41.20;;;30.23;;
27383;SDS011;14851;51.166;4.760;2022-12-01T00:08:32;46.22;;;30.95;;
27383;SDS011;14851;51.166;4.760;2022-12-01T00:11:17;41.55;;;30.40;;
27383;SDS011;14851;51.166;4.760;2022-12-01T00:13:43;40.83;;;30.42;;
27383;SDS011;14851;51.166;4.760;2022-12-01T00:16:15;41.28;;;30.20;;
27383;SDS011;14851;51.166;4.760;2022-12-01T00:18:41;40.00;;;29.77;;
27383;SDS011;14851;51.166;4.760;2022-12-01T00:21:16;42.65;;;29.85;;
27383;SDS011;14851;51.166;4.760;2022-12-01T00:23:47;42.03;;;31.50;;
27383;SDS011;14851;51.166;4.760;2022-12-01T00:26:18;40.75;;;30.55;;
27383;SDS011;14851;51.166;4.760;2022-12-01T00:28:49;45.13;;;31.13;;
27383;SDS011;14851;51.166;4.760;2022-12-01T00:31:20;42.50;;;30.40;;
27383;SDS011;14851;51.166;4.760;2022-12-01T00:33:49;42.78;;;31.48;;
27383;SDS011;14851;51.166;4.760;2022-12-01T00:36:16;39.53;;;28.98;;
27383;SDS011;14851;51.166;4.760;2022-12-01T00:38:43;41.15;;;29.40;;
27383;SDS011;14851;51.166;4.760;2022-12-01T00:41:11;41.38;;;28.77;;
27383;SDS011;14851;51.166;4.760;2022-12-01T00:43:43;41.08;;;28.65;;
27383;SDS011;14851;51.166;4.760;2022-12-01T00:46:08;39.72;;;28.63;;
27383;SDS011;14851;51.166;4.760;2022-12-01T00:48:35;41.13;;;28.10;;
27383;SDS011;14851;51.166;4.760;2022-12-01T00:51:01;40.25;;;28.25;;
27383;SDS011;14851;51.166;4.760;2022-12-01T00:53:27;40.88;;;28.60;;
27383;SDS011;14851;51.166;4.760;2022-12-01T00:55:54;38.22;;;27.38;;
27383;SDS011;14851;51.166;4.760;2022-12-01T00:58:22;36.42;;;26.35;;
27383;SDS011;14851;51.166;4.760;2022-12-01T01:00:49;38.53;;;27.70;;
27383;SDS011;14851;51.166;4.760;2022-12-01T01:03:22;36.40;;;25.23;;
27383;SDS011;14851;51.166;4.760;2022-12-01T01:05:51;33.22;;;25.20;;
27383;SDS011;14851;51.166;4.760;2022-12-01T01:08:19;34.05;;;25.25;;
27383;SDS011;14851;51.166;4.760;2022-12-01T01:10:46;39.50;;;26.92;;
27383;SDS011;14851;51.166;4.760;2022-12-01T01:13:13;38.17;;;26.83;;
27383;SDS011;14851;51.166;4.760;2022-12-01T01:15:41;38.72;;;27.35;;
27383;SDS011;14851;51.166;4.760;2022-12-01T01:18:07;40.60;;;28.83;;
27383;SDS011;14851;51.166;4.760;2022-12-01T01:20:35;44.45;;;29.55;;
27383;SDS011;14851;51.166;4.760;2022-12-01T01:23:01;40.97;;;29.20;;
27383;SDS011;14851;51.166;4.760;2022-12-01T01:25:27;41.92;;;30.10;;
27383;SDS011;14851;51.166;4.760;2022-12-01T01:27:54;35.25;;;26.25;;
27383;SDS011;14851;51.166;4.760;2022-12-01T01:30:22;39.15;;;26.80;;
27383;SDS011;14851;51.166;4.760;2022-12-01T01:32:48;40.22;;;26.30;;
27383;SDS011;14851;51.166;4.760;2022-12-01T01:35:14;38.88;;;27.08;;
27383;SDS011;14851;51.166;4.760;2022-12-01T01:37:39;38.97;;;26.35;;
27383;SDS011;14851;51.166;4.760;2022-12-01T01:40:09;39.60;;;25.83;;
27383;SDS011;14851;51.166;4.760;2022-12-01T01:42:36;41.88;;;27.52;;
27383;SDS011;14851;51.166;4.760;2022-12-01T01:45:02;38.92;;;25.55;;
27383;SDS011;14851;51.166;4.760;2022-12-01T01:47:31;38.55;;;26.83;;
27383;SDS011;14851;51.166;4.760;2022-12-01T01:50:04;43.03;;;26.73;;
27383;SDS011;14851;51.166;4.760;2022-12-01T01:52:34;40.50;;;27.15;;
27383;SDS011;14851;51.166;4.760;2022-12-01T01:55:03;39.90;;;25.67;;
27383;SDS011;14851;51.166;4.760;2022-12-01T01:57:31;41.78;;;27.20;;
27383;SDS011;14851;51.166;4.760;2022-12-01T02:00:05;39.83;;;26.13;;
27383;SDS011;14851;51.166;4.760;2022-12-01T02:02:41;39.28;;;25.05;;
27383;SDS011;14851;51.166;4.760;2022-12-01T02:05:15;40.83;;;26.27;;
27383;SDS011;14851;51.166;4.760;2022-12-01T02:07:42;40.80;;;25.52;;
27383;SDS011;14851;51.166;4.760;2022-12-01T02:10:09;37.88;;;25.40;;
27383;SDS011;14851;51.166;4.760;2022-12-01T02:13:00;40.25;;;25.50;;
27383;SDS011;14851;51.166;4.760;2022-12-01T02:26:43;37.50;;;24.38;;
27383;SDS011;14851;51.166;4.760;2022-12-01T02:34:53;39.67;;;24.25;;
27383;SDS011;14851;51.166;4.760;2022-12-01T02:48:30;38.50;;;24.73;;
27383;SDS011;14851;51.166;4.760;2022-12-01T02:51:06;35.78;;;22.77;;
27383;SDS011;14851;51.166;4.760;2022-12-01T02:53:42;41.03;;;26.63;;
27383;SDS011;14851;51.166;4.760;2022-12-01T02:56:13;38.45;;;25.42;;
27383;SDS011;14851;51.166;4.760;2022-12-01T02:58:41;44.67;;;27.00;;
27383;SDS011;14851;51.166;4.760;2022-12-01T03:12:09;39.17;;;24.98;;
27383;SDS011;14851;51.166;4.760;2022-12-01T03:17:23;40.55;;;26.33;;
27383;SDS011;14851;51.166;4.760;2022-12-01T03:20:10;41.00;;;24.88;;
27383;SDS011;14851;51.166;4.760;2022-12-01T03:22:41;46.13;;;26.98;;
27383;SDS011;14851;51.166;4.760;2022-12-01T03:25:14;48.40;;;26.65;;
27383;SDS011;14851;51.166;4.760;2022-12-01T03:27:43;43.95;;;26.05;;
27383;SDS011;14851;51.166;4.760;2022-12-01T03:30:11;51.28;;;28.73;;
27383;SDS011;14851;51.166;4.760;2022-12-01T03:35:18;51.38;;;28.40;;
27383;SDS011;14851;51.166;4.760;2022-12-01T03:37:58;46.13;;;27.48;;
27383;SDS011;14851;51.166;4.760;2022-12-01T03:40:35;48.55;;;26.23;;
27383;SDS011;14851;51.166;4.760;2022-12-01T03:43:05;49.17;;;27.20;;
27383;SDS011;14851;51.166;4.760;2022-12-01T03:48:36;48.05;;;27.13;;
27383;SDS011;14851;51.166;4.760;2022-12-01T03:51:14;51.58;;;27.20;;
27383;SDS011;14851;51.166;4.760;2022-12-01T03:53:52;45.97;;;26.95;;
27383;SDS011;14851;51.166;4.760;2022-12-01T03:56:41;49.92;;;28.30;;
27383;SDS011;14851;51.166;4.760;2022-12-01T03:59:14;45.13;;;27.27;;
27383;SDS011;14851;51.166;4.760;2022-12-01T04:01:43;45.80;;;25.15;;
27383;SDS011;14851;51.166;4.760;2022-12-01T04:04:10;45.72;;;27.00;;
27383;SDS011;14851;51.166;4.760;2022-12-01T04:06:38;48.72;;;26.60;;
27383;SDS011;14851;51.166;4.760;2022-12-01T04:09:06;47.58;;;27.08;;
27383;SDS011;14851;51.166;4.760;2022-12-01T04:11:34;48.58;;;27.17;;
27383;SDS011;14851;51.166;4.760;2022-12-01T04:14:18;49.63;;;27.33;;
27383;SDS011;14851;51.166;4.760;2022-12-01T04:16:46;51.22;;;26.58;;
27383;SDS011;14851;51.166;4.760;2022-12-01T04:19:13;52.17;;;29.10;;
27383;SDS011;14851;51.166;4.760;2022-12-01T04:21:40;45.33;;;25.00;;
27383;SDS011;14851;51.166;4.760;2022-12-01T04:24:06;48.75;;;25.83;;
27383;SDS011;14851;51.166;4.760;2022-12-01T04:26:34;46.47;;;27.25;;
27383;SDS011;14851;51.166;4.760;2022-12-01T04:29:03;46.60;;;27.80;;
27383;SDS011;14851;51.166;4.760;2022-12-01T04:31:33;48.60;;;26.92;;
27383;SDS011;14851;51.166;4.760;2022-12-01T04:33:59;51.67;;;26.80;;
27383;SDS011;14851;51.166;4.760;2022-12-01T04:36:26;48.83;;;28.05;;
27383;SDS011;14851;51.166;4.760;2022-12-01T04:38:57;48.25;;;28.42;;
27383;SDS011;14851;51.166;4.760;2022-12-01T04:41:23;50.20;;;29.13;;
27383;SDS011;14851;51.166;4.760;2022-12-01T04:43:55;50.35;;;28.20;;
27383;SDS011;14851;51.166;4.760;2022-12-01T04:46:22;50.08;;;27.67;;
27383;SDS011;14851;51.166;4.760;2022-12-01T04:48:48;50.47;;;28.13;;
27383;SDS011;14851;51.166;4.760;2022-12-01T04:51:14;52.13;;;28.20;;
27383;SDS011;14851;51.166;4.760;2022-12-01T04:53:40;45.33;;;27.17;;
27383;SDS011;14851;51.166;4.760;2022-12-01T04:56:06;43.83;;;25.67;;
27383;SDS011;14851;51.166;4.760;2022-12-01T04:58:32;46.88;;;25.73;;
27383;SDS011;14851;51.166;4.760;2022-12-01T05:01:10;52.08;;;29.15;;
27383;SDS011;14851;51.166;4.760;2022-12-01T05:03:39;51.13;;;29.55;;
27383;SDS011;14851;51.166;4.760;2022-12-01T05:06:08;47.10;;;26.80;;
27383;SDS011;14851;51.166;4.760;2022-12-01T05:08:36;52.42;;;28.42;;
27383;SDS011;14851;51.166;4.760;2022-12-01T05:11:03;48.03;;;26.80;;
27383;SDS011;14851;51.166;4.760;2022-12-01T05:13:31;51.47;;;28.77;;
27383;SDS011;14851;51.166;4.760;2022-12-01T05:16:03;51.58;;;28.52;;
27383;SDS011;14851;51.166;4.760;2022-12-01T05:18:39;49.22;;;28.23;;
27383;SDS011;14851;51.166;4.760;2022-12-01T05:21:07;46.17;;;26.85;;
27383;SDS011;14851;51.166;4.760;2022-12-01T05:23:38;50.67;;;27.23;;
27383;SDS011;14851;51.166;4.760;2022-12-01T05:26:05;48.45;;;26.48;;
27383;SDS011;14851;51.166;4.760;2022-12-01T05:28:33;47.90;;;26.67;;
27383;SDS011;14851;51.166;4.760;2022-12-01T05:30:59;45.45;;;25.60;;
27383;SDS011;14851;51.166;4.760;2022-12-01T05:33:27;45.55;;;26.83;;
27383;SDS011;14851;51.166;4.760;2022-12-01T05:35:53;48.08;;;28.52;;
27383;SDS011;14851;51.166;4.760;2022-12-01T05:38:20;34.42;;;21.58;;
27383;SDS011;14851;51.166;4.760;2022-12-01T05:40:52;45.03;;;25.52;;
27383;SDS011;14851;51.166;4.760;2022-12-01T05:43:20;48.72;;;26.95;;
27383;SDS011;14851;51.166;4.760;2022-12-01T05:45:47;45.35;;;25.52;;
27383;SDS011;14851;51.166;4.760;2022-12-01T05:48:16;49.17;;;26.65;;
27383;SDS011;14851;51.166;4.760;2022-12-01T05:50:42;49.17;;;27.13;;
27383;SDS011;14851;51.166;4.760;2022-12-01T05:53:12;49.72;;;27.83;;
27383;SDS011;14851;51.166;4.760;2022-12-01T05:55:41;48.70;;;26.38;;
27383;SDS011;14851;51.166;4.760;2022-12-01T05:58:07;43.42;;;25.15;;
27383;SDS011;14851;51.166;4.760;2022-12-01T06:00:34;43.83;;;26.20;;
27383;SDS011;14851;51.166;4.760;2022-12-01T06:03:03;43.38;;;26.60;;
27383;SDS011;14851;51.166;4.760;2022-12-01T06:05:29;47.88;;;26.98;;
27383;SDS011;14851;51.166;4.760;2022-12-01T06:07:55;46.40;;;26.85;;
27383;SDS011;14851;51.166;4.760;2022-12-01T06:10:22;48.25;;;27.20;;
27383;SDS011;14851;51.166;4.760;2022-12-01T06:12:48;48.38;;;27.48;;
27383;SDS011;14851;51.166;4.760;2022-12-01T06:15:15;42.03;;;25.85;;
27383;SDS011;14851;51.166;4.760;2022-12-01T06:17:40;45.40;;;27.17;;
27383;SDS011;14851;51.166;4.760;2022-12-01T06:20:09;47.17;;;26.55;;
27383;SDS011;14851;51.166;4.760;2022-12-01T06:22:36;43.38;;;24.85;;
27383;SDS011;14851;51.166;4.760;2022-12-01T06:25:02;47.03;;;26.58;;
27383;SDS011;14851;51.166;4.760;2022-12-01T06:27:28;45.42;;;26.20;;
27383;SDS011;14851;51.166;4.760;2022-12-01T06:29:56;43.83;;;26.00;;
27383;SDS011;14851;51.166;4.760;2022-12-01T06:32:22;45.20;;;26.35;;
27383;SDS011;14851;51.166;4.760;2022-12-01T06:34:51;41.92;;;24.95;;
27383;SDS011;14851;51.166;4.760;2022-12-01T06:37:22;45.72;;;26.65;;
27383;SDS011;14851;51.166;4.760;2022-12-01T06:39:51;42.05;;;25.13;;
27383;SDS011;14851;51.166;4.760;2022-12-01T06:42:17;41.80;;;24.35;;
27383;SDS011;14851;51.166;4.760;2022-12-01T06:44:43;43.53;;;24.33;;
27383;SDS011;14851;51.166;4.760;2022-12-01T06:47:10;36.95;;;25.20;;
27383;SDS011;14851;51.166;4.760;2022-12-01T06:49:37;41.65;;;25.63;;
27383;SDS011;14851;51.166;4.760;2022-12-01T06:52:03;40.78;;;25.60;;
27383;SDS011;14851;51.166;4.760;2022-12-01T06:54:29;41.58;;;25.25;;
27383;SDS011;14851;51.166;4.760;2022-12-01T06:56:56;40.35;;;25.35;;
27383;SDS011;14851;51.166;4.760;2022-12-01T06:59:23;41.35;;;26.80;;
27383;SDS011;14851;51.166;4.760;2022-12-01T07:01:50;38.50;;;25.55;;
27383;SDS011;14851;51.166;4.760;2022-12-01T07:04:17;37.22;;;25.63;;
27383;SDS011;14851;51.166;4.760;2022-12-01T07:06:44;45.85;;;26.08;;
27383;SDS011;14851;51.166;4.760;2022-12-01T07:09:10;40.38;;;24.10;;
27383;SDS011;14851;51.166;4.760;2022-12-01T07:11:36;41.45;;;25.48;;
27383;SDS011;14851;51.166;4.760;2022-12-01T07:14:03;43.35;;;26.20;;
27383;SDS011;14851;51.166;4.760;2022-12-01T07:16:30;42.38;;;25.63;;
27383;SDS011;14851;51.166;4.760;2022-12-01T07:18:55;42.95;;;26.08;;
27383;SDS011;14851;51.166;4.760;2022-12-01T07:21:24;38.42;;;24.17;;
27383;SDS011;14851;51.166;4.760;2022-12-01T07:23:50;42.05;;;26.25;;
27383;SDS011;14851;51.166;4.760;2022-12-01T07:26:16;44.03;;;26.65;;
27383;SDS011;14851;51.166;4.760;2022-12-01T07:28:44;44.55;;;26.02;;
27383;SDS011;14851;51.166;4.760;2022-12-01T07:31:16;38.30;;;24.00;;
27383;SDS011;14851;51.166;4.760;2022-12-01T07:33:45;44.10;;;27.95;;
27383;SDS011;14851;51.166;4.760;2022-12-01T07:36:11;41.47;;;24.98;;
27383;SDS011;14851;51.166;4.760;2022-12-01T07:38:39;39.72;;;25.58;;
27383;SDS011;14851;51.166;4.760;2022-12-01T07:41:09;36.88;;;23.33;;
27383;SDS011;14851;51.166;4.760;2022-12-01T07:43:38;44.08;;;27.90;;
27383;SDS011;14851;51.166;4.760;2022-12-01T07:48:35;36.90;;;23.98;;
27383;SDS011;14851;51.166;4.760;2022-12-01T07:51:06;46.88;;;27.75;;
27383;SDS011;14851;51.166;4.760;2022-12-01T07:53:33;43.65;;;28.15;;
27383;SDS011;14851;51.166;4.760;2022-12-01T07:58:32;45.65;;;28.33;;
27383;SDS011;14851;51.166;4.760;2022-12-01T08:00:58;44.15;;;28.00;;
27383;SDS011;14851;51.166;4.760;2022-12-01T08:03:30;44.83;;;28.80;;
27383;SDS011;14851;51.166;4.760;2022-12-01T08:05:56;48.17;;;29.75;;
27383;SDS011;14851;51.166;4.760;2022-12-01T08:08:23;42.20;;;27.35;;
27383;SDS011;14851;51.166;4.760;2022-12-01T08:10:50;47.22;;;29.73;;
27383;SDS011;14851;51.166;4.760;2022-12-01T08:13:19;47.22;;;28.67;;
27383;SDS011;14851;51.166;4.760;2022-12-01T08:15:46;48.22;;;29.63;;
27383;SDS011;14851;51.166;4.760;2022-12-01T08:18:13;46.75;;;29.58;;
27383;SDS011;14851;51.166;4.760;2022-12-01T08:20:39;49.83;;;31.20;;
27383;SDS011;14851;51.166;4.760;2022-12-01T08:23:07;48.03;;;28.98;;
27383;SDS011;14851;51.166;4.760;2022-12-01T08:25:32;43.35;;;29.00;;
27383;SDS011;14851;51.166;4.760;2022-12-01T08:27:59;49.47;;;29.35;;
27383;SDS011;14851;51.166;4.760;2022-12-01T08:30:25;50.03;;;29.23;;
27383;SDS011;14851;51.166;4.760;2022-12-01T08:32:54;52.05;;;30.35;;
27383;SDS011;14851;51.166;4.760;2022-12-01T08:35:21;53.25;;;30.17;;
27383;SDS011;14851;51.166;4.760;2022-12-01T08:37:51;48.20;;;29.70;;
27383;SDS011;14851;51.166;4.760;2022-12-01T08:40:18;52.85;;;31.20;;
27383;SDS011;14851;51.166;4.760;2022-12-01T08:42:46;46.05;;;28.35;;
27383;SDS011;14851;51.166;4.760;2022-12-01T08:45:13;51.88;;;31.08;;
27383;SDS011;14851;51.166;4.760;2022-12-01T08:47:41;47.22;;;28.98;;
27383;SDS011;14851;51.166;4.760;2022-12-01T08:50:07;46.10;;;27.33;;
27383;SDS011;14851;51.166;4.760;2022-12-01T08:52:35;48.55;;;29.05;;
27383;SDS011;14851;51.166;4.760;2022-12-01T08:55:02;43.22;;;24.95;;
27383;SDS011;14851;51.166;4.760;2022-12-01T08:57:29;49.60;;;28.60;;
27383;SDS011;14851;51.166;4.760;2022-12-01T08:59:55;45.67;;;28.20;;
27383;SDS011;14851;51.166;4.760;2022-12-01T09:02:22;44.72;;;28.25;;
27383;SDS011;14851;51.166;4.760;2022-12-01T09:04:49;47.92;;;29.60;;
27383;SDS011;14851;51.166;4.760;2022-12-01T09:07:15;45.13;;;26.75;;
27383;SDS011;14851;51.166;4.760;2022-12-01T09:09:42;51.05;;;29.60;;
27383;SDS011;14851;51.166;4.760;2022-12-01T09:12:09;51.35;;;29.52;;
27383;SDS011;14851;51.166;4.760;2022-12-01T09:14:36;50.50;;;29.02;;
27383;SDS011;14851;51.166;4.760;2022-12-01T09:17:05;49.60;;;29.60;;
27383;SDS011;14851;51.166;4.760;2022-12-01T09:19:32;47.17;;;28.83;;
27383;SDS011;14851;51.166;4.760;2022-12-01T09:21:59;50.95;;;29.20;;
27383;SDS011;14851;51.166;4.760;2022-12-01T09:24:25;52.80;;;30.23;;
27383;SDS011;14851;51.166;4.760;2022-12-01T09:26:55;37.95;;;23.73;;
27383;SDS011;14851;51.166;4.760;2022-12-01T09:29:25;43.67;;;25.90;;
27383;SDS011;14851;51.166;4.760;2022-12-01T09:31:55;50.13;;;27.65;;
27383;SDS011;14851;51.166;4.760;2022-12-01T09:34:22;43.95;;;28.25;;
27383;SDS011;14851;51.166;4.760;2022-12-01T09:36:48;47.22;;;27.23;;
27383;SDS011;14851;51.166;4.760;2022-12-01T09:39:18;44.38;;;26.08;;
27383;SDS011;14851;51.166;4.760;2022-12-01T09:44:50;45.53;;;27.45;;
27383;SDS011;14851;51.166;4.760;2022-12-01T09:47:20;46.70;;;27.88;;
27383;SDS011;14851;51.166;4.760;2022-12-01T09:50:00;44.90;;;27.80;;
27383;SDS011;14851;51.166;4.760;2022-12-01T09:53:07;45.90;;;26.33;;
27383;SDS011;14851;51.166;4.760;2022-12-01T09:55:40;46.00;;;28.25;;
27383;SDS011;14851;51.166;4.760;2022-12-01T09:58:11;48.63;;;27.08;;
27383;SDS011;14851;51.166;4.760;2022-12-01T10:00:42;43.22;;;27.25;;
27383;SDS011;14851;51.166;4.760;2022-12-01T10:06:10;50.67;;;29.27;;
27383;SDS011;14851;51.166;4.760;2022-12-01T10:08:42;52.33;;;29.17;;
27383;SDS011;14851;51.166;4.760;2022-12-01T10:14:02;48.17;;;28.83;;
27383;SDS011;14851;51.166;4.760;2022-12-01T10:16:37;51.22;;;30.05;;
27383;SDS011;14851;51.166;4.760;2022-12-01T10:24:48;51.85;;;29.52;;
27383;SDS011;14851;51.166;4.760;2022-12-01T10:32:44;48.88;;;28.52;;
27383;SDS011;14851;51.166;4.760;2022-12-01T10:35:16;52.40;;;27.75;;
27383;SDS011;14851;51.166;4.760;2022-12-01T10:37:44;45.92;;;27.55;;
27383;SDS011;14851;51.166;4.760;2022-12-01T10:40:14;46.58;;;25.90;;
27383;SDS011;14851;51.166;4.760;2022-12-01T10:42:47;45.72;;;28.00;;
27383;SDS011;14851;51.166;4.760;2022-12-01T10:45:26;44.13;;;26.65;;
27383;SDS011;14851;51.166;4.760;2022-12-01T11:01:23;46.95;;;27.27;;
27383;SDS011;14851;51.166;4.760;2022-12-01T11:04:02;45.88;;;27.23;;
27383;SDS011;14851;51.166;4.760;2022-12-01T11:06:31;54.88;;;28.83;;
27383;SDS011;14851;51.166;4.760;2022-12-01T11:09:00;45.90;;;28.23;;
27383;SDS011;14851;51.166;4.760;2022-12-01T11:11:30;44.15;;;27.25;;
27383;SDS011;14851;51.166;4.760;2022-12-01T11:14:01;45.85;;;28.10;;
27383;SDS011;14851;51.166;4.760;2022-12-01T11:16:37;47.67;;;32.35;;
27383;SDS011;14851;51.166;4.760;2022-12-01T11:21:43;45.05;;;27.23;;
27383;SDS011;14851;51.166;4.760;2022-12-01T11:24:18;43.88;;;27.08;;
27383;SDS011;14851;51.166;4.760;2022-12-01T11:26:52;45.15;;;27.13;;
27383;SDS011;14851;51.166;4.760;2022-12-01T11:29:28;44.67;;;26.52;;
27383;SDS011;14851;51.166;4.760;2022-12-01T11:32:01;45.35;;;27.13;;
27383;SDS011;14851;51.166;4.760;2022-12-01T11:34:45;44.33;;;27.17;;
27383;SDS011;14851;51.166;4.760;2022-12-01T11:37:19;44.00;;;26.42;;
27383;SDS011;14851;51.166;4.760;2022-12-01T11:39:48;42.42;;;26.30;;
27383;SDS011;14851;51.166;4.760;2022-12-01T11:44:47;44.53;;;26.77;;
27383;SDS011;14851;51.166;4.760;2022-12-01T11:47:37;44.47;;;26.90;;
27383;SDS011;14851;51.166;4.760;2022-12-01T11:51:02;42.13;;;25.83;;
27383;SDS011;14851;51.166;4.760;2022-12-01T11:53:43;44.10;;;27.42;;
27383;SDS011;14851;51.166;4.760;2022-12-01T11:56:22;45.38;;;28.33;;
27383;SDS011;14851;51.166;4.760;2022-12-01T11:58:55;45.15;;;27.35;;
27383;SDS011;14851;51.166;4.760;2022-12-01T12:07:01;42.58;;;27.65;;
27383;SDS011;14851;51.166;4.760;2022-12-01T12:27:03;41.92;;;26.35;;
27383;SDS011;14851;51.166;4.760;2022-12-01T12:30:06;41.95;;;26.85;;
27383;SDS011;14851;51.166;4.760;2022-12-01T12:35:28;39.33;;;27.02;;
27383;SDS011;14851;51.166;4.760;2022-12-01T12:41:27;43.42;;;28.10;;
27383;SDS011;14851;51.166;4.760;2022-12-01T12:44:02;40.22;;;26.38;;
27383;SDS011;14851;51.166;4.760;2022-12-01T12:52:32;42.45;;;27.88;;
27383;SDS011;14851;51.166;4.760;2022-12-01T12:57:54;40.63;;;27.35;;
27383;SDS011;14851;51.166;4.760;2022-12-01T13:00:25;43.83;;;27.50;;
27383;SDS011;14851;51.166;4.760;2022-12-01T13:05:33;39.75;;;26.75;;
27383;SDS011;14851;51.166;4.760;2022-12-01T13:08:10;40.75;;;26.40;;
27383;SDS011;14851;51.166;4.760;2022-12-01T13:15:55;43.67;;;28.02;;
27383;SDS011;14851;51.166;4.760;2022-12-01T13:18:26;40.37;;;28.23;;
27383;SDS011;14851;51.166;4.760;2022-12-01T13:21:15;42.33;;;27.83;;
27383;SDS011;14851;51.166;4.760;2022-12-01T13:23:45;42.08;;;27.70;;
27383;SDS011;14851;51.166;4.760;2022-12-01T13:26:13;39.70;;;26.58;;
27383;SDS011;14851;51.166;4.760;2022-12-01T13:31:14;35.83;;;23.85;;
27383;SDS011;14851;51.166;4.760;2022-12-01T13:33:52;35.28;;;23.35;;
27383;SDS011;14851;51.166;4.760;2022-12-01T13:36:29;32.53;;;22.35;;
27383;SDS011;14851;51.166;4.760;2022-12-01T13:39:02;33.63;;;23.08;;
27383;SDS011;14851;51.166;4.760;2022-12-01T13:41:33;35.00;;;22.75;;
27383;SDS011;14851;51.166;4.760;2022-12-01T13:44:19;36.60;;;23.77;;
27383;SDS011;14851;51.166;4.760;2022-12-01T13:47:02;33.50;;;23.25;;
27383;SDS011;14851;51.166;4.760;2022-12-01T13:57:31;38.65;;;24.77;;
27383;SDS011;14851;51.166;4.760;2022-12-01T14:00:23;37.90;;;24.25;;
27383;SDS011;14851;51.166;4.760;2022-12-01T14:08:32;40.67;;;25.42;;
27383;SDS011;14851;51.166;4.760;2022-12-01T14:11:25;41.10;;;25.45;;
27383;SDS011;14851;51.166;4.760;2022-12-01T14:14:02;38.38;;;25.58;;
27383;SDS011;14851;51.166;4.760;2022-12-01T14:16:55;44.30;;;26.27;;
27383;SDS011;14851;51.166;4.760;2022-12-01T14:19:31;38.17;;;25.35;;
27383;SDS011;14851;51.166;4.760;2022-12-01T14:21:58;36.92;;;25.08;;
27383;SDS011;14851;51.166;4.760;2022-12-01T14:24:30;37.40;;;24.73;;
27383;SDS011;14851;51.166;4.760;2022-12-01T14:27:06;42.78;;;24.55;;
27383;SDS011;14851;51.166;4.760;2022-12-01T14:29:33;35.63;;;24.25;;
27383;SDS011;14851;51.166;4.760;2022-12-01T14:32:04;36.67;;;24.73;;
27383;SDS011;14851;51.166;4.760;2022-12-01T14:34:45;37.05;;;23.52;;
27383;SDS011;14851;51.166;4.760;2022-12-01T14:37:20;38.28;;;22.45;;
27383;SDS011;14851;51.166;4.760;2022-12-01T14:39:51;34.90;;;23.65;;
27383;SDS011;14851;51.166;4.760;2022-12-01T14:45:31;40.22;;;24.48;;
27383;SDS011;14851;51.166;4.760;2022-12-01T15:02:10;49.53;;;29.33;;
27383;SDS011;14851;51.166;4.760;2022-12-01T15:07:44;42.90;;;26.15;;
27383;SDS011;14851;51.166;4.760;2022-12-01T15:10:26;44.60;;;28.13;;
27383;SDS011;14851;51.166;4.760;2022-12-01T15:13:16;45.08;;;26.85;;
27383;SDS011;14851;51.166;4.760;2022-12-01T15:15:48;44.20;;;28.13;;
27383;SDS011;14851;51.166;4.760;2022-12-01T15:18:21;49.42;;;28.35;;
27383;SDS011;14851;51.166;4.760;2022-12-01T15:21:13;54.25;;;30.63;;
27383;SDS011;14851;51.166;4.760;2022-12-01T15:23:51;53.83;;;30.80;;
27383;SDS011;14851;51.166;4.760;2022-12-01T15:26:18;50.13;;;29.20;;
27383;SDS011;14851;51.166;4.760;2022-12-01T15:28:46;58.08;;;32.30;;
27383;SDS011;14851;51.166;4.760;2022-12-01T15:31:12;56.97;;;30.83;;
27383;SDS011;14851;51.166;4.760;2022-12-01T15:33:46;47.53;;;31.05;;
27383;SDS011;14851;51.166;4.760;2022-12-01T15:36:17;55.47;;;31.52;;
27383;SDS011;14851;51.166;4.760;2022-12-01T15:38:46;53.75;;;30.88;;
27383;SDS011;14851;51.166;4.760;2022-12-01T15:41:22;52.90;;;32.60;;
27383;SDS011;14851;51.166;4.760;2022-12-01T15:43:53;54.08;;;33.45;;
27383;SDS011;14851;51.166;4.760;2022-12-01T15:46:25;48.72;;;33.20;;
27383;SDS011;14851;51.166;4.760;2022-12-01T15:49:05;56.88;;;33.83;;
27383;SDS011;14851;51.166;4.760;2022-12-01T15:51:54;52.95;;;33.05;;
27383;SDS011;14851;51.166;4.760;2022-12-01T15:54:35;53.20;;;33.28;;
27383;SDS011;14851;51.166;4.760;2022-12-01T15:57:03;54.78;;;33.78;;
27383;SDS011;14851;51.166;4.760;2022-12-01T15:59:38;52.95;;;34.90;;
27383;SDS011;14851;51.166;4.760;2022-12-01T16:02:20;52.67;;;33.70;;
27383;SDS011;14851;51.166;4.760;2022-12-01T16:04:47;57.30;;;33.90;;
27383;SDS011;14851;51.166;4.760;2022-12-01T16:07:14;56.13;;;35.13;;
27383;SDS011;14851;51.166;4.760;2022-12-01T16:09:41;52.40;;;34.33;;
27383;SDS011;14851;51.166;4.760;2022-12-01T16:12:21;56.72;;;35.47;;
27383;SDS011;14851;51.166;4.760;2022-12-01T16:17:27;60.47;;;37.40;;
27383;SDS011;14851;51.166;4.760;2022-12-01T16:20:22;55.10;;;35.95;;
27383;SDS011;14851;51.166;4.760;2022-12-01T16:23:02;59.88;;;36.42;;
27383;SDS011;14851;51.166;4.760;2022-12-01T16:25:35;60.55;;;33.83;;
27383;SDS011;14851;51.166;4.760;2022-12-01T16:28:04;60.08;;;33.97;;
27383;SDS011;14851;51.166;4.760;2022-12-01T16:30:43;54.22;;;34.40;;
27383;SDS011;14851;51.166;4.760;2022-12-01T16:33:15;57.58;;;33.75;;
27383;SDS011;14851;51.166;4.760;2022-12-01T16:35:46;52.88;;;33.28;;
27383;SDS011;14851;51.166;4.760;2022-12-01T16:38:17;55.55;;;33.72;;
27383;SDS011;14851;51.166;4.760;2022-12-01T16:40:48;52.28;;;33.38;;
27383;SDS011;14851;51.166;4.760;2022-12-01T16:43:18;53.05;;;33.45;;
27383;SDS011;14851;51.166;4.760;2022-12-01T16:45:46;54.85;;;34.10;;
27383;SDS011;14851;51.166;4.760;2022-12-01T16:48:17;53.47;;;33.80;;
27383;SDS011;14851;51.166;4.760;2022-12-01T16:50:46;57.10;;;35.70;;
27383;SDS011;14851;51.166;4.760;2022-12-01T16:53:19;53.22;;;33.63;;
27383;SDS011;14851;51.166;4.760;2022-12-01T16:55:57;49.03;;;32.10;;
27383;SDS011;14851;51.166;4.760;2022-12-01T16:58:24;51.97;;;31.17;;
27383;SDS011;14851;51.166;4.760;2022-12-01T17:00:51;56.08;;;31.95;;
27383;SDS011;14851;51.166;4.760;2022-12-01T17:03:22;52.58;;;31.92;;
27383;SDS011;14851;51.166;4.760;2022-12-01T17:05:51;48.33;;;31.88;;
27383;SDS011;14851;51.166;4.760;2022-12-01T17:08:18;49.45;;;33.05;;
27383;SDS011;14851;51.166;4.760;2022-12-01T17:10:45;48.40;;;32.65;;
27383;SDS011;14851;51.166;4.760;2022-12-01T17:13:14;52.60;;;35.65;;
27383;SDS011;14851;51.166;4.760;2022-12-01T17:15:44;53.53;;;36.17;;
27383;SDS011;14851;51.166;4.760;2022-12-01T17:18:13;52.25;;;37.92;;
27383;SDS011;14851;51.166;4.760;2022-12-01T17:20:41;52.55;;;37.95;;
27383;SDS011;14851;51.166;4.760;2022-12-01T17:23:08;51.58;;;31.42;;
27383;SDS011;14851;51.166;4.760;2022-12-01T17:25:38;49.63;;;31.13;;
27383;SDS011;14851;51.166;4.760;2022-12-01T17:28:05;47.10;;;29.83;;
27383;SDS011;14851;51.166;4.760;2022-12-01T17:30:32;48.97;;;30.90;;
27383;SDS011;14851;51.166;4.760;2022-12-01T17:32:58;52.30;;;33.60;;
27383;SDS011;14851;51.166;4.760;2022-12-01T17:35:25;49.45;;;32.95;;
27383;SDS011;14851;51.166;4.760;2022-12-01T17:37:51;48.40;;;32.28;;